Time;durP1;ratioP1;P1;durP2;ratioP2;P2;SDS_P1;SDS_P2;PMS_P1;PMS_P2;Temp;Humidity;BMP_temperature;BMP_pressure;BME280_temperature;BME280_humidity;BME280_pressure;Samples;Min_cycle;Max_cycle;Signal;HPM_P1;HPM_P2
2023/01/13 00:01:18;;;;;;;86.65;9.50;;;7.40;99.90;;;;;;4961322;28;20031;-67
2023/01/13 00:03:44;;;;;;;59.92;7.90;;;7.40;99.90;;;;;;4975115;28;20384;-67
2023/01/13 00:06:16;;;;;;;68.70;8.82;;;7.50;99.90;;;;;;4973790;28;20191;-67
2023/01/13 00:08:42;;;;;;;64.05;7.93;;;7.50;99.90;;;;;;4974577;28;20073;-67
2023/01/13 00:11:09;;;;;;;82.72;9.23;;;7.50;99.90;;;;;;4974517;28;20027;-67
2023/01/13 00:13:36;;;;;;;79.70;9.63;;;7.50;99.90;;;;;;4974545;28;20035;-66
2023/01/13 00:16:05;;;;;;;68.05;8.98;;;7.60;99.90;;;;;;4974392;28;20088;-67
2023/01/13 00:18:31;;;;;;;82.70;10.68;;;7.60;99.90;;;;;;4968818;28;20054;-67
2023/01/13 00:21:05;;;;;;;69.15;9.02;;;7.60;99.90;;;;;;4959347;28;20087;-67
2023/01/13 00:23:33;;;;;;;65.82;8.45;;;7.60;99.90;;;;;;4963495;28;20089;-67
2023/01/13 00:26:01;;;;;;;61.60;8.15;;;7.70;99.90;;;;;;4974657;28;20379;-67
2023/01/13 00:28:26;;;;;;;53.65;9.93;;;7.70;99.90;;;;;;4974613;28;20033;-67
2023/01/13 00:30:52;;;;;;;60.83;9.00;;;7.70;99.90;;;;;;4974641;28;20027;-67
2023/01/13 00:33:18;;;;;;;80.90;9.20;;;7.70;99.90;;;;;;4974432;28;20027;-67
2023/01/13 00:35:43;;;;;;;69.35;7.55;;;7.70;99.90;;;;;;4974578;28;20033;-67
2023/01/13 00:38:09;;;;;;;69.03;10.57;;;7.70;99.90;;;;;;4974761;28;20054;-67
2023/01/13 00:40:34;;;;;;;57.85;9.07;;;7.70;99.90;;;;;;4974375;28;20550;-67
2023/01/13 00:45:44;;;;;;;72.50;9.85;;;7.80;99.90;;;;;;4974299;28;20046;-67
2023/01/13 00:48:09;;;;;;;61.55;10.07;;;7.90;99.90;;;;;;4974226;28;20027;-67
2023/01/13 00:50:35;;;;;;;83.18;10.35;;;7.90;99.90;;;;;;4974184;28;20443;-67
2023/01/13 00:53:02;;;;;;;60.88;8.73;;;7.80;99.90;;;;;;4974128;28;20065;-67
2023/01/13 00:55:31;;;;;;;61.55;8.35;;;7.80;99.90;;;;;;4974363;28;20105;-67
2023/01/13 00:58:02;;;;;;;64.30;8.35;;;7.70;99.90;;;;;;4974361;28;20085;-67
2023/01/13 01:00:31;;;;;;;82.70;10.65;;;7.60;99.90;;;;;;4974397;28;20022;-67
2023/01/13 01:02:56;;;;;;;62.97;8.45;;;7.50;99.90;;;;;;4973986;28;20035;-67
2023/01/13 01:05:22;;;;;;;62.97;7.97;;;7.50;99.90;;;;;;4972507;28;20082;-67
2023/01/13 01:07:48;;;;;;;60.67;9.75;;;7.40;99.90;;;;;;4974101;28;20038;-67
2023/01/13 01:10:13;;;;;;;75.07;9.73;;;7.40;99.90;;;;;;4973994;28;20027;-67
2023/01/13 01:12:39;;;;;;;77.10;9.20;;;7.30;99.90;;;;;;4974074;28;20085;-67
2023/01/13 01:15:08;;;;;;;70.68;9.45;;;7.20;99.90;;;;;;4974352;28;20391;-67
2023/01/13 01:17:33;;;;;;;90.43;9.80;;;7.20;99.90;;;;;;4974880;28;20034;-67
2023/01/13 01:19:59;;;;;;;86.20;11.25;;;7.10;99.90;;;;;;4978077;28;20035;-67
2023/01/13 01:22:24;;;;;;;57.85;9.68;;;7.10;99.90;;;;;;4978355;28;20035;-67
2023/01/13 01:24:50;;;;;;;75.57;9.55;;;7.00;99.90;;;;;;4977766;28;20117;-66
2023/01/13 01:27:15;;;;;;;64.03;8.85;;;7.10;99.90;;;;;;4977335;28;20031;-66
2023/01/13 01:29:41;;;;;;;74.03;8.32;;;7.00;99.90;;;;;;4977556;28;20023;-66
2023/01/13 01:32:06;;;;;;;76.15;10.07;;;7.00;99.90;;;;;;4977835;28;20058;-66
2023/01/13 01:34:32;;;;;;;82.72;10.30;;;7.00;99.90;;;;;;4977497;28;20034;-66
2023/01/13 01:36:58;;;;;;;82.82;10.27;;;7.10;99.90;;;;;;4977290;28;20029;-66
2023/01/13 01:39:23;;;;;;;67.13;10.25;;;7.10;99.90;;;;;;4977512;28;20035;-66
2023/01/13 01:44:50;;;;;;;80.88;9.52;;;7.10;99.90;;;;;;4977106;28;20450;-67
2023/01/13 01:47:17;;;;;;;77.30;11.27;;;7.20;99.90;;;;;;4977114;28;20442;-67
2023/01/13 01:49:44;;;;;;;83.07;10.50;;;7.20;99.90;;;;;;4975999;28;20043;-67
2023/01/13 01:52:15;;;;;;;81.15;10.63;;;7.20;99.90;;;;;;4976909;28;20030;-66
2023/01/13 01:54:41;;;;;;;73.30;10.23;;;7.20;99.90;;;;;;4976825;28;20027;-67
2023/01/13 01:57:09;;;;;;;79.60;10.30;;;7.20;99.90;;;;;;4976820;28;20035;-66
2023/01/13 01:59:36;;;;;;;93.10;11.32;;;7.20;99.90;;;;;;4976790;28;20019;-66
2023/01/13 02:02:01;;;;;;;107.68;14.27;;;7.20;99.90;;;;;;4976658;28;20030;-66
2023/01/13 02:04:32;;;;;;;98.93;11.43;;;7.20;99.90;;;;;;4976668;28;20484;-67
2023/01/13 02:06:59;;;;;;;78.32;10.48;;;7.20;99.90;;;;;;4976658;28;20027;-67
2023/01/13 02:09:25;;;;;;;79.85;9.82;;;7.10;99.90;;;;;;4976587;28;20023;-66
2023/01/13 02:14:35;;;;;;;;;;;7.00;99.90;;;;;;4976924;28;20094;-66
2023/01/13 02:17:19;;;;;;;83.85;10.00;;;7.00;99.90;;;;;;4976523;28;19926;-66
2023/01/13 02:20:11;;;;;;;96.40;10.88;;;7.00;99.90;;;;;;4976657;28;20034;-67
2023/01/13 02:24:52;;;;;;;97.55;11.35;;;7.00;99.90;;;;;;4976282;28;20019;-66
2023/01/13 02:26:24;;;;;;;107.47;13.00;;;7.00;99.90;;;;;;4976070;28;20390;-67
2023/01/13 02:32:03;;;;;;;84.57;11.13;;;7.00;99.90;;;;;;4976381;28;20061;-67
2023/01/13 02:34:37;;;;;;;100.05;14.73;;;7.00;99.90;;;;;;4976186;28;20037;-67
2023/01/13 02:37:08;;;;;;;76.40;10.30;;;6.90;99.90;;;;;;4964391;28;20023;-67
2023/01/13 02:39:54;;;;;;;80.57;9.73;;;6.80;99.90;;;;;;4971135;28;20031;-67
2023/01/13 02:45:25;;;;;;;92.13;12.50;;;7.00;99.90;;;;;;4976049;28;20037;-67
2023/01/13 02:47:54;;;;;;;76.50;11.75;;;7.00;99.90;;;;;;4976307;28;20258;-67
2023/01/13 02:50:29;;;;;;;99.32;12.23;;;7.00;99.90;;;;;;4976044;28;20101;-67
2023/01/13 02:53:00;;;;;;;83.03;11.27;;;7.10;99.90;;;;;;4975989;28;20097;-67
2023/01/13 02:55:41;;;;;;;100.93;12.10;;;7.10;99.90;;;;;;4976243;28;20031;-66
2023/01/13 02:58:09;;;;;;;83.75;14.23;;;7.10;99.90;;;;;;4975736;28;20022;-66
2023/01/13 03:00:36;;;;;;;95.32;11.40;;;7.00;99.90;;;;;;4975891;28;20033;-66
2023/01/13 03:03:02;;;;;;;95.13;13.05;;;7.00;99.90;;;;;;4975646;28;20023;-68
2023/01/13 03:05:30;;;;;;;89.22;10.85;;;7.00;99.90;;;;;;4975371;28;20039;-67
2023/01/13 03:08:02;;;;;;;76.63;11.13;;;7.00;99.90;;;;;;4975441;28;20027;-67
2023/01/13 03:11:04;;;;;;;83.55;11.18;;;6.90;99.90;;;;;;4975800;28;20033;-67
2023/01/13 03:13:45;;;;;;;75.68;11.63;;;6.90;99.90;;;;;;4975729;28;20038;-66
2023/01/13 03:16:35;;;;;;;81.13;10.93;;;6.90;99.90;;;;;;4975260;28;20033;-67
2023/01/13 03:19:09;;;;;;;75.78;10.95;;;7.00;99.90;;;;;;4975571;28;20049;-66
2023/01/13 03:21:57;;;;;;;78.10;11.13;;;7.10;99.90;;;;;;4975609;28;20493;-67
2023/01/13 03:24:47;;;;;;;64.18;10.40;;;7.20;99.90;;;;;;4975434;28;20506;-66
2023/01/13 03:27:41;;;;;;;78.03;10.57;;;7.30;99.90;;;;;;4975021;28;20030;-66
2023/01/13 03:30:31;;;;;;;93.97;12.03;;;7.30;99.90;;;;;;4975474;28;20113;-67
2023/01/13 03:33:04;;;;;;;80.78;9.98;;;7.30;99.90;;;;;;4975383;28;20251;-67
2023/01/13 03:35:32;;;;;;;;;;;7.20;99.90;;;;;;4975457;28;20023;-67
2023/01/13 03:38:14;;;;;;;86.05;10.55;;;7.20;99.90;;;;;;4973741;28;19975;-67
2023/01/13 03:40:46;;;;;;;81.03;10.43;;;7.20;99.90;;;;;;4975208;28;20034;-67
2023/01/13 03:46:07;;;;;;;77.60;11.45;;;7.30;99.90;;;;;;4975110;28;20395;-67
2023/01/13 03:48:35;;;;;;;97.07;12.18;;;7.20;99.90;;;;;;4975200;28;20015;-67
2023/01/13 03:51:06;;;;;;;82.18;13.07;;;7.20;99.90;;;;;;4974840;28;20507;-67
2023/01/13 03:53:38;;;;;;;79.82;9.32;;;7.20;99.90;;;;;;4974984;28;20108;-66
2023/01/13 03:56:14;;;;;;;65.50;9.60;;;7.30;99.90;;;;;;4974976;28;20482;-66
2023/01/13 03:58:43;;;;;;;85.75;14.75;;;7.30;99.90;;;;;;4975012;28;20035;-67
2023/01/13 04:01:15;;;;;;;83.43;10.57;;;7.30;99.90;;;;;;4974874;28;20085;-67
2023/01/13 04:03:53;;;;;;;74.65;12.77;;;7.10;99.90;;;;;;4974894;28;20166;-66
2023/01/13 04:06:30;;;;;;;77.03;10.55;;;7.20;99.90;;;;;;4974572;28;20027;-66
2023/01/13 04:09:07;;;;;;;90.50;10.55;;;7.20;99.90;;;;;;4974934;28;20037;-66
2023/01/13 04:11:43;;;;;;;93.25;11.07;;;7.20;99.90;;;;;;4974529;28;20038;-66
2023/01/13 04:14:10;;;;;;;88.85;11.35;;;7.10;99.90;;;;;;4974931;28;20106;-66
2023/01/13 04:16:36;;;;;;;96.05;13.23;;;7.00;99.90;;;;;;4975050;28;20078;-67
2023/01/13 04:19:02;;;;;;;65.22;9.52;;;6.90;99.90;;;;;;4974601;28;20062;-66
2023/01/13 04:21:28;;;;;;;83.35;11.38;;;7.00;99.90;;;;;;4974469;28;20026;-66
2023/01/13 04:23:54;;;;;;;58.25;11.07;;;7.10;99.90;;;;;;4974398;28;20030;-67
2023/01/13 04:26:19;;;;;;;77.18;10.52;;;7.00;99.90;;;;;;4974374;28;20034;-66
2023/01/13 04:28:45;;;;;;;63.83;10.25;;;7.00;99.90;;;;;;4974402;28;20019;-67
2023/01/13 04:31:11;;;;;;;71.43;9.57;;;7.00;99.90;;;;;;4974415;28;20042;-67
2023/01/13 04:33:36;;;;;;;83.97;10.55;;;7.10;99.90;;;;;;4974392;28;20022;-67
2023/01/13 04:36:02;;;;;;;91.18;11.18;;;7.10;99.90;;;;;;4981413;23;20438;-66
2023/01/13 04:38:28;;;;;;;80.53;11.48;;;7.10;99.90;;;;;;4974236;28;20035;-66
2023/01/13 04:40:53;;;;;;;82.15;10.27;;;7.10;99.90;;;;;;4974275;28;20033;-67
2023/01/13 04:43:19;;;;;;;88.53;11.18;;;7.00;99.90;;;;;;4974201;28;20422;-67
2023/01/13 04:45:44;;;;;;;74.28;9.90;;;7.00;99.90;;;;;;4974302;28;20143;-67
2023/01/13 04:48:10;;;;;;;77.38;10.88;;;7.00;99.90;;;;;;4974441;28;20074;-67
2023/01/13 04:50:35;;;;;;;105.40;13.10;;;7.00;99.90;;;;;;4957427;28;20031;-67
2023/01/13 04:53:01;;;;;;;63.08;9.48;;;7.10;99.90;;;;;;4974390;28;20023;-67
2023/01/13 04:55:27;;;;;;;59.70;11.05;;;7.10;99.90;;;;;;4961351;28;20050;-67
2023/01/13 04:57:52;;;;;;;76.90;10.65;;;7.10;99.90;;;;;;4969997;28;20046;-67
2023/01/13 05:00:21;;;;;;;72.72;10.75;;;7.10;99.90;;;;;;4978133;28;20027;-67
2023/01/13 05:02:49;;;;;;;72.35;9.75;;;7.10;99.90;;;;;;4978034;28;20038;-67
2023/01/13 05:05:15;;;;;;;79.68;10.77;;;7.10;99.90;;;;;;4978010;28;20062;-66
2023/01/13 05:07:40;;;;;;;74.55;10.00;;;7.10;99.90;;;;;;4975478;28;20046;-67
2023/01/13 05:10:06;;;;;;;93.07;10.98;;;7.10;99.90;;;;;;4977634;28;20423;-67
2023/01/13 05:18:01;;;;;;;83.07;11.57;;;7.00;99.90;;;;;;4958200;28;20050;-67
2023/01/13 05:20:27;;;;;;;94.15;11.70;;;7.00;99.90;;;;;;4958106;28;20030;-67
2023/01/13 05:25:39;;;;;;;83.85;12.20;;;6.90;99.90;;;;;;4958195;28;20537;-67
2023/01/13 05:28:06;;;;;;;83.10;9.65;;;6.80;99.90;;;;;;4963670;28;20034;-67
2023/01/13 05:30:36;;;;;;;83.03;10.75;;;6.70;99.90;;;;;;4977534;28;20022;-67
2023/01/13 05:33:01;;;;;;;77.40;10.20;;;6.80;99.90;;;;;;4975409;28;20027;-67
2023/01/13 05:35:28;;;;;;;85.50;9.90;;;6.80;99.90;;;;;;4976202;28;20123;-67
2023/01/13 05:37:53;;;;;;;79.07;11.68;;;6.70;99.90;;;;;;4957705;28;20027;-67
2023/01/13 05:43:20;;;;;;;73.38;9.18;;;6.80;99.90;;;;;;4957861;29;20090;-68
2023/01/13 05:45:51;;;;;;;89.22;10.23;;;6.90;99.90;;;;;;4958040;28;20167;-67
2023/01/13 05:48:19;;;;;;;77.15;11.32;;;6.90;99.90;;;;;;4958360;28;20117;-67
2023/01/13 05:50:45;;;;;;;77.55;12.43;;;6.90;99.90;;;;;;4957889;28;20410;-67
2023/01/13 05:53:11;;;;;;;96.07;10.88;;;6.90;99.90;;;;;;4969114;28;20082;-67
2023/01/13 05:55:41;;;;;;;71.38;12.02;;;6.90;99.90;;;;;;4976862;28;20034;-67
2023/01/13 05:58:11;;;;;;;82.45;9.38;;;6.90;99.90;;;;;;4976939;28;20027;-67
2023/01/13 06:00:37;;;;;;;79.32;10.60;;;6.90;99.90;;;;;;4977053;28;20066;-67
2023/01/13 06:03:03;;;;;;;75.05;10.18;;;6.90;99.90;;;;;;4976855;28;20150;-66
2023/01/13 06:05:29;;;;;;;78.85;11.85;;;6.90;99.90;;;;;;4975461;28;20027;-66
2023/01/13 06:07:58;;;;;;;76.70;10.38;;;7.00;99.90;;;;;;4976795;28;20109;-67
2023/01/13 06:10:25;;;;;;;77.50;11.07;;;6.90;99.90;;;;;;4976605;28;20037;-67
2023/01/13 06:12:50;;;;;;;73.95;10.20;;;6.90;99.90;;;;;;4976787;28;20086;-67
2023/01/13 06:15:16;;;;;;;78.10;12.88;;;6.90;99.90;;;;;;4976581;28;20035;-67
2023/01/13 06:17:41;;;;;;;82.22;10.27;;;6.90;99.90;;;;;;4976353;28;20113;-67
2023/01/13 06:20:08;;;;;;;76.78;11.70;;;6.90;99.90;;;;;;4976358;28;20027;-67
2023/01/13 06:22:38;;;;;;;66.07;10.30;;;6.80;99.90;;;;;;4976494;28;20026;-67
2023/01/13 06:25:15;;;;;;;100.07;10.50;;;6.80;99.90;;;;;;4976326;28;20633;-67
2023/01/13 06:27:41;;;;;;;75.38;11.43;;;6.70;99.90;;;;;;4976248;28;20062;-67
2023/01/13 06:30:07;;;;;;;75.22;10.35;;;6.70;99.90;;;;;;4976025;28;20051;-67
2023/01/13 06:32:38;;;;;;;64.40;9.20;;;6.70;99.90;;;;;;4976451;28;20030;-66
2023/01/13 06:35:07;;;;;;;102.57;12.73;;;6.80;99.90;;;;;;4962636;28;20505;-66
2023/01/13 06:37:34;;;;;;;62.97;8.15;;;6.80;99.90;;;;;;4958448;28;20035;-67
2023/01/13 06:40:02;;;;;;;78.03;8.95;;;6.90;99.90;;;;;;4956787;29;20435;-66
2023/01/13 06:45:16;;;;;;;69.78;9.38;;;7.00;99.90;;;;;;4975950;28;20026;-67
2023/01/13 06:47:42;;;;;;;52.30;8.05;;;7.10;99.90;;;;;;4964399;28;20020;-67
2023/01/13 06:50:09;;;;;;;59.28;7.65;;;7.10;99.90;;;;;;4956537;28;20483;-67
2023/01/13 06:52:34;;;;;;;68.93;9.93;;;7.20;99.90;;;;;;4960014;28;20586;-67
2023/01/13 06:55:00;;;;;;;63.30;8.82;;;7.10;99.90;;;;;;4966116;28;20081;-67
2023/01/13 06:57:25;;;;;;;65.35;9.63;;;7.00;99.90;;;;;;4974879;28;20509;-67
2023/01/13 06:59:53;;;;;;;73.75;12.95;;;6.90;99.90;;;;;;4975474;28;20050;-66
2023/01/13 07:02:18;;;;;;;63.70;9.45;;;7.00;99.90;;;;;;4975072;28;20031;-67
2023/01/13 07:04:45;;;;;;;67.05;9.80;;;7.00;99.90;;;;;;4975571;28;20081;-67
2023/01/13 07:07:11;;;;;;;78.65;10.40;;;7.00;99.90;;;;;;4957226;28;20223;-67
2023/01/13 07:09:37;;;;;;;57.78;6.75;;;7.00;99.90;;;;;;4956401;28;20032;-67
2023/01/13 07:12:03;;;;;;;64.25;8.63;;;7.00;99.90;;;;;;4966119;28;20026;-67
2023/01/13 07:17:13;;;;;;;54.33;7.60;;;7.00;99.90;;;;;;4975356;28;20085;-67
2023/01/13 07:19:38;;;;;;;68.85;10.90;;;7.10;99.90;;;;;;4975720;28;20035;-66
2023/01/13 07:22:04;;;;;;;79.32;10.90;;;7.10;99.90;;;;;;4973659;28;20490;-67
2023/01/13 07:24:29;;;;;;;62.95;9.98;;;7.10;99.90;;;;;;4975470;28;20035;-67
2023/01/13 07:26:55;;;;;;;71.60;9.60;;;7.10;99.90;;;;;;4975123;28;20031;-66
2023/01/13 07:29:21;;;;;;;67.97;8.23;;;7.20;99.90;;;;;;4956679;28;20034;-67
2023/01/13 07:31:46;;;;;;;70.65;9.65;;;7.20;99.90;;;;;;4955885;29;20500;-67
2023/01/13 07:34:12;;;;;;;71.07;12.43;;;7.20;99.90;;;;;;4970094;28;20026;-67
2023/01/13 07:36:38;;;;;;;48.90;8.93;;;7.20;99.90;;;;;;4967027;28;20047;-66
2023/01/13 07:39:06;;;;;;;65.43;9.55;;;7.20;99.90;;;;;;4955914;28;20027;-67
2023/01/13 07:44:16;;;;;;;55.08;7.97;;;7.20;99.90;;;;;;4974894;28;20085;-67
2023/01/13 07:46:41;;;;;;;80.57;10.38;;;7.20;99.90;;;;;;4974813;28;20514;-67
2023/01/13 07:49:08;;;;;;;64.30;7.78;;;7.20;99.90;;;;;;4974915;28;20092;-67
2023/01/13 07:51:38;;;;;;;74.93;9.13;;;7.30;99.90;;;;;;4974819;28;20045;-67
2023/01/13 07:54:04;;;;;;;63.67;9.88;;;7.20;99.90;;;;;;4974511;28;20054;-67
2023/01/13 07:56:29;;;;;;;80.88;8.88;;;7.20;99.90;;;;;;4974802;28;20578;-67
2023/01/13 07:58:55;;;;;;;55.97;8.40;;;7.30;99.90;;;;;;4972485;28;20402;-67
2023/01/13 08:01:20;;;;;;;71.78;9.40;;;7.30;99.90;;;;;;4974967;28;20115;-67
2023/01/13 08:03:46;;;;;;;56.45;9.82;;;7.30;99.90;;;;;;4966062;28;20078;-67
2023/01/13 08:06:12;;;;;;;68.75;10.15;;;7.20;99.90;;;;;;4955604;28;20023;-67
2023/01/13 08:08:38;;;;;;;63.78;9.02;;;7.20;99.90;;;;;;4955590;28;20046;-66
2023/01/13 08:11:06;;;;;;;80.22;9.70;;;7.10;99.90;;;;;;4955560;29;20023;-67
2023/01/13 08:13:32;;;;;;;77.63;10.10;;;7.00;99.90;;;;;;4958635;28;20375;-66
2023/01/13 08:16:01;;;;;;;61.72;10.07;;;6.90;99.90;;;;;;4974479;28;20070;-66
2023/01/13 08:18:27;;;;;;;60.25;8.80;;;6.90;99.90;;;;;;5012394;23;20494;-70
2023/01/13 08:20:54;;;;;;;69.45;8.70;;;6.90;99.90;;;;;;4993739;28;20022;-69
2023/01/13 08:23:21;;;;;;;68.68;9.05;;;6.90;99.90;;;;;;4993645;28;20031;-70
2023/01/13 08:25:48;;;;;;;62.33;9.77;;;6.80;99.90;;;;;;4993690;28;20474;-69
2023/01/13 08:28:15;;;;;;;64.88;9.63;;;6.90;99.90;;;;;;4974004;28;20031;-70
2023/01/13 08:30:40;;;;;;;73.53;10.00;;;6.80;99.90;;;;;;4959337;28;20023;-69
2023/01/13 08:33:08;;;;;;;67.97;8.77;;;6.80;99.90;;;;;;4961048;28;20031;-70
2023/01/13 08:35:38;;;;;;;78.20;9.82;;;6.80;99.90;;;;;;4975643;28;20506;-70
2023/01/13 08:38:05;;;;;;;49.10;7.55;;;6.80;99.90;;;;;;4978075;28;20486;-70
2023/01/13 08:40:31;;;;;;;75.80;9.07;;;6.70;99.90;;;;;;4978375;28;20109;-69
2023/01/13 08:42:57;;;;;;;75.65;9.57;;;6.70;99.90;;;;;;4976474;28;20120;-70
2023/01/13 08:45:22;;;;;;;74.57;10.07;;;6.70;99.90;;;;;;4978318;28;20054;-69
2023/01/13 08:47:48;;;;;;;63.50;8.77;;;6.70;99.90;;;;;;4977830;28;20039;-70
2023/01/13 08:50:14;;;;;;;86.40;10.20;;;6.70;99.90;;;;;;4978213;28;20035;-69
2023/01/13 08:52:40;;;;;;;83.35;11.60;;;6.70;99.90;;;;;;4960802;28;20037;-70
2023/01/13 08:55:06;;;;;;;85.40;9.82;;;6.80;99.90;;;;;;4980334;28;20047;-70
2023/01/13 08:57:31;;;;;;;84.28;9.18;;;6.80;99.90;;;;;;4958592;28;20035;-70
2023/01/13 08:59:57;;;;;;;78.20;9.10;;;6.80;99.90;;;;;;4958648;28;20034;-70
2023/01/13 09:02:23;;;;;;;66.45;9.50;;;6.70;99.90;;;;;;4958646;28;20102;-69
2023/01/13 09:04:50;;;;;;;69.15;8.95;;;6.80;99.90;;;;;;4975464;28;20391;-70
2023/01/13 09:07:16;;;;;;;77.85;10.02;;;6.80;99.90;;;;;;4977337;28;20022;-70
2023/01/13 09:09:41;;;;;;;59.97;8.02;;;6.80;99.90;;;;;;4977257;28;20050;-70
2023/01/13 09:14:55;;;;;;;52.42;7.75;;;6.80;99.90;;;;;;4978065;28;20533;-69
2023/01/13 09:17:22;;;;;;;75.18;8.02;;;6.80;99.90;;;;;;4977166;28;20046;-70
2023/01/13 09:19:47;;;;;;;46.75;7.82;;;6.90;99.90;;;;;;4976137;28;20478;-69
2023/01/13 09:22:15;;;;;;;61.53;7.65;;;6.90;99.90;;;;;;4977430;28;20039;-69
2023/01/13 09:24:40;;;;;;;72.18;9.85;;;6.90;99.90;;;;;;4977368;28;20031;-70
2023/01/13 09:27:07;;;;;;;49.55;6.68;;;6.90;99.90;;;;;;4977556;28;20097;-70
2023/01/13 09:29:33;;;;;;;58.28;9.60;;;7.00;99.90;;;;;;4977186;28;20035;-70
2023/01/13 09:31:58;;;;;;;67.43;7.35;;;7.00;99.90;;;;;;4977208;28;20038;-69
2023/01/13 09:37:08;;;;;;;;;;;7.00;99.90;;;;;;4977521;28;20406;-70
2023/01/13 09:39:34;;;;;;;52.67;7.57;;;7.00;99.90;;;;;;4977061;28;19910;-69
2023/01/13 09:45:25;;;;;;;66.70;7.43;;;7.00;99.90;;;;;;4977262;28;20038;-69
2023/01/13 09:47:55;;;;;;;74.30;9.20;;;7.00;99.90;;;;;;4966615;28;20027;-70
2023/01/13 09:50:49;;;;;;;46.00;6.88;;;7.00;99.90;;;;;;4957877;28;20023;-69
2023/01/13 09:53:28;;;;;;;60.25;7.55;;;7.00;99.90;;;;;;4966682;28;20042;-70
2023/01/13 09:55:54;;;;;;;62.78;9.52;;;7.00;99.90;;;;;;4976781;28;20502;-69
2023/01/13 09:58:20;;;;;;;57.72;7.47;;;7.00;99.90;;;;;;4969222;28;20070;-70
2023/01/13 10:00:54;;;;;;;57.38;7.53;;;7.00;99.90;;;;;;4957646;28;20062;-69
2023/01/13 10:03:26;;;;;;;51.80;9.50;;;7.00;99.90;;;;;;4957206;28;20036;-70
2023/01/13 10:06:18;;;;;;;56.38;7.88;;;6.90;99.90;;;;;;4959324;28;20360;-71
2023/01/13 10:08:45;;;;;;;57.83;8.15;;;6.90;99.90;;;;;;4976411;28;20026;-69
2023/01/13 10:14:14;;;;;;;56.13;7.35;;;6.90;99.90;;;;;;4976739;28;20082;-70
2023/01/13 10:16:59;;;;;;;48.92;7.13;;;6.80;99.90;;;;;;4976207;28;20030;-69
2023/01/13 10:19:30;;;;;;;36.55;6.22;;;6.80;99.90;;;;;;4976695;28;20508;-69
2023/01/13 10:21:58;;;;;;;61.05;7.38;;;6.80;99.90;;;;;;4973029;28;20483;-70
2023/01/13 10:24:36;;;;;;;58.95;8.20;;;6.80;99.90;;;;;;4974140;28;20047;-70
2023/01/13 10:27:27;;;;;;;54.20;7.82;;;6.80;99.90;;;;;;4974936;28;20390;-70
2023/01/13 10:29:54;;;;;;;58.67;7.45;;;6.80;99.90;;;;;;4957187;28;20029;-69
2023/01/13 10:32:19;;;;;;;50.83;7.60;;;6.80;99.90;;;;;;4957225;28;20028;-70
2023/01/13 10:34:50;;;;;;;59.17;9.27;;;6.70;99.90;;;;;;4957743;28;20035;-70
2023/01/13 10:37:25;;;;;;;53.53;7.22;;;6.70;99.90;;;;;;4968587;28;20022;-70
2023/01/13 10:39:54;;;;;;;49.72;7.05;;;6.70;99.90;;;;;;4975981;28;20027;-70
2023/01/13 10:42:22;;;;;;;62.92;7.63;;;6.60;99.90;;;;;;4961116;28;20051;-70
2023/01/13 10:44:53;;;;;;;49.88;7.43;;;6.60;99.90;;;;;;4956581;28;20024;-70
2023/01/13 10:47:23;;;;;;;43.70;6.35;;;6.60;99.90;;;;;;4967841;28;20023;-70
2023/01/13 10:50:07;;;;;;;50.20;7.00;;;6.60;99.90;;;;;;4975566;28;20057;-69
2023/01/13 10:52:38;;;;;;;36.20;6.38;;;6.60;99.90;;;;;;4969379;28;20035;-70
2023/01/13 10:55:31;;;;;;;57.05;7.35;;;6.60;99.90;;;;;;4956459;28;20115;-70
2023/01/13 10:58:15;;;;;;;56.50;6.53;;;6.60;99.90;;;;;;4962562;28;20069;-70
2023/01/13 11:00:41;;;;;;;66.30;8.07;;;6.60;99.90;;;;;;4975826;28;20034;-70
2023/01/13 11:03:24;;;;;;;53.40;6.85;;;6.60;99.90;;;;;;4970768;28;20032;-70
2023/01/13 11:05:53;;;;;;;67.47;7.90;;;6.60;99.90;;;;;;4960165;28;20019;-70
2023/01/13 11:08:28;;;;;;;40.85;6.10;;;6.60;99.90;;;;;;4965009;28;20534;-71
2023/01/13 11:10:56;;;;;;;61.28;6.70;;;6.60;99.90;;;;;;4965330;28;20052;-70
2023/01/13 11:13:28;;;;;;;39.63;5.93;;;6.60;99.90;;;;;;4968092;28;20035;-71
2023/01/13 11:16:11;;;;;;;47.90;5.43;;;6.60;99.90;;;;;;4975143;28;20030;-70
2023/01/13 11:18:38;;;;;;;46.83;5.35;;;6.60;99.90;;;;;;4975178;28;20049;-71
2023/01/13 11:21:16;;;;;;;71.72;8.52;;;6.60;99.90;;;;;;4975515;28;20391;-70
2023/01/13 11:23:48;;;;;;;58.13;7.95;;;6.70;99.90;;;;;;4974993;28;20387;-70
2023/01/13 11:26:24;;;;;;;58.50;7.95;;;6.70;99.90;;;;;;4975671;28;20027;-70
2023/01/13 11:28:59;;;;;;;49.60;9.63;;;6.70;99.90;;;;;;4973206;28;20049;-70
2023/01/13 11:31:41;;;;;;;65.50;8.25;;;6.70;99.90;;;;;;4975637;28;20426;-69
2023/01/13 11:34:28;;;;;;;77.25;9.73;;;6.70;99.90;;;;;;4963514;28;20511;-71
2023/01/13 11:36:57;;;;;;;68.90;8.48;;;6.80;99.90;;;;;;4955878;28;20055;-70
2023/01/13 11:39:37;;;;;;;71.57;10.55;;;6.70;99.90;;;;;;4955605;28;20023;-70
2023/01/13 11:42:20;;;;;;;86.45;10.30;;;6.70;99.90;;;;;;4955911;28;20034;-69
2023/01/13 11:45:10;;;;;;;69.67;9.50;;;6.70;99.90;;;;;;4955763;28;20036;-69
2023/01/13 11:47:35;;;;;;;78.55;9.25;;;6.70;99.90;;;;;;4955622;28;20030;-70
2023/01/13 11:50:02;;;;;;;62.38;9.18;;;6.80;99.90;;;;;;4955736;28;20023;-70
2023/01/13 11:53:04;;;;;;;92.18;10.70;;;6.80;99.90;;;;;;4955429;28;20049;-70
2023/01/13 11:55:57;;;;;;;77.63;9.40;;;6.80;99.90;;;;;;4955699;28;20030;-70
2023/01/13 11:59:00;;;;;;;86.68;9.52;;;6.80;99.90;;;;;;4955342;28;20027;-70
2023/01/13 12:01:37;;;;;;;71.82;10.05;;;6.80;99.90;;;;;;4938802;28;20063;-70
2023/01/13 12:04:37;;;;;;;79.93;10.88;;;6.80;99.90;;;;;;4955567;28;20348;-70
2023/01/13 12:07:19;;;;;;;92.93;12.23;;;6.80;99.90;;;;;;4955507;28;20158;-70
2023/01/13 12:09:58;;;;;;;83.63;11.85;;;6.90;99.90;;;;;;4955489;28;20043;-70
2023/01/13 12:12:35;;;;;;;84.82;9.85;;;6.90;99.90;;;;;;4956033;28;20055;-70
2023/01/13 12:15:20;;;;;;;79.13;10.38;;;6.80;99.90;;;;;;4973835;28;20041;-70
2023/01/13 12:17:54;;;;;;;97.20;10.45;;;6.90;99.90;;;;;;4973721;28;20502;-71
2023/01/13 12:20:44;;;;;;;106.50;12.80;;;6.90;99.90;;;;;;4957159;28;20035;-70
2023/01/13 12:23:33;;;;;;;103.70;14.98;;;6.90;99.90;;;;;;4955346;28;20106;-69
2023/01/13 12:26:10;;;;;;;99.78;10.90;;;6.90;99.90;;;;;;4955140;28;20086;-70
2023/01/13 12:28:52;;;;;;;95.93;13.30;;;6.90;99.90;;;;;;4955079;28;20028;-70
2023/01/13 12:31:19;;;;;;;89.80;13.65;;;6.90;99.90;;;;;;4971954;28;20105;-71
2023/01/13 12:34:07;;;;;;;117.65;11.73;;;6.90;99.90;;;;;;4974298;28;20038;-70
2023/01/13 12:36:51;;;;;;;79.40;11.35;;;6.90;99.90;;;;;;4973983;28;20033;-70
2023/01/13 12:39:44;;;;;;;96.43;10.75;;;7.00;99.90;;;;;;4974477;28;20026;-69
2023/01/13 12:45:14;;;;;;;102.97;12.18;;;7.00;99.90;;;;;;4974517;28;20537;-69
2023/01/13 12:47:45;;;;;;;96.80;15.20;;;7.00;99.90;;;;;;4974171;28;20047;-70
2023/01/13 12:50:23;;;;;;;70.50;11.35;;;7.00;99.90;;;;;;4974478;28;20022;-69
2023/01/13 12:52:50;;;;;;;117.82;12.95;;;7.00;99.90;;;;;;4974369;28;20359;-70
2023/01/13 12:55:21;;;;;;;80.28;9.45;;;7.00;99.90;;;;;;4974174;28;20057;-71
2023/01/13 12:58:03;;;;;;;96.97;11.38;;;7.00;99.90;;;;;;4974031;28;20031;-70
2023/01/13 13:00:52;;;;;;;99.70;9.95;;;7.10;99.90;;;;;;4974065;28;20026;-70
2023/01/13 13:03:25;;;;;;;80.63;10.50;;;7.10;99.90;;;;;;4974241;28;20082;-69
2023/01/13 13:06:20;;;;;;;97.75;11.15;;;7.10;99.90;;;;;;4973939;28;20093;-70
2023/01/13 13:08:46;;;;;;;96.72;11.43;;;7.10;99.90;;;;;;4974183;28;20410;-70
2023/01/13 13:14:13;;;;;;;109.40;12.93;;;7.10;99.90;;;;;;4976005;28;20034;-70
2023/01/13 13:16:50;;;;;;;100.05;12.52;;;7.10;99.90;;;;;;4977532;28;20027;-70
2023/01/13 13:19:21;;;;;;;77.03;10.88;;;7.10;99.90;;;;;;4977512;28;20050;-69
2023/01/13 13:22:11;;;;;;;101.43;13.18;;;7.10;99.90;;;;;;4977284;28;20038;-70
2023/01/13 13:24:49;;;;;;;80.32;12.45;;;7.10;99.90;;;;;;4977301;28;20038;-70
2023/01/13 13:27:24;;;;;;;63.55;7.05;;;7.10;99.90;;;;;;4975803;28;20080;-71
2023/01/13 13:29:54;;;;;;;60.63;10.35;;;7.00;99.90;;;;;;4958130;28;20067;-69
2023/01/13 13:32:32;;;;;;;54.38;9.88;;;6.90;99.90;;;;;;4958513;28;20078;-69
2023/01/13 13:34:58;;;;;;;59.38;11.60;;;6.80;99.90;;;;;;4961160;28;20031;-70
2023/01/13 13:37:29;;;;;;;77.95;9.85;;;6.90;99.90;;;;;;4957595;28;20403;-70
2023/01/13 13:48:23;;;;;;;86.25;10.48;;;7.20;99.90;;;;;;4974861;28;20034;-69
2023/01/13 13:50:56;;;;;;;88.10;12.18;;;7.20;99.90;;;;;;4977094;28;20047;-69
2023/01/13 13:53:26;;;;;;;91.88;10.55;;;7.20;99.90;;;;;;4977187;28;20026;-69
2023/01/13 13:56:00;;;;;;;65.28;11.05;;;7.30;99.90;;;;;;4976083;28;20023;-69
2023/01/13 13:58:28;;;;;;;81.20;13.45;;;7.30;99.90;;;;;;4976925;28;20498;-68
2023/01/13 14:00:54;;;;;;;90.88;11.73;;;7.30;99.90;;;;;;4960572;28;20043;-68
2023/01/13 14:03:34;;;;;;;104.57;12.13;;;7.30;99.90;;;;;;4957328;28;20062;-68
2023/01/13 14:06:04;;;;;;;102.00;12.82;;;7.30;99.90;;;;;;4965764;28;20382;-68